sensor_id;sensor_type;location;lat;lon;timestamp;P1;durP1;ratioP1;P2;durP2;ratioP2
19905;SDS011;10115;50.906;4.438;2022-07-23T00:01:59;11.43;;;7.07;;
19905;SDS011;10115;50.906;4.438;2022-07-23T00:04:25;14.03;;;7.63;;
19905;SDS011;10115;50.906;4.438;2022-07-23T00:06:50;14.33;;;7.53;;
19905;SDS011;10115;50.906;4.438;2022-07-23T00:09:16;11.70;;;7.83;;
19905;SDS011;10115;50.906;4.438;2022-07-23T00:11:42;9.27;;;7.60;;
19905;SDS011;10115;50.906;4.438;2022-07-23T00:14:07;11.13;;;7.83;;
19905;SDS011;10115;50.906;4.438;2022-07-23T00:16:33;14.13;;;7.97;;
19905;SDS011;10115;50.906;4.438;2022-07-23T00:18:58;10.97;;;7.37;;
19905;SDS011;10115;50.906;4.438;2022-07-23T00:21:26;18.23;;;7.80;;
19905;SDS011;10115;50.906;4.438;2022-07-23T00:23:52;14.10;;;7.80;;
19905;SDS011;10115;50.906;4.438;2022-07-23T00:26:17;15.47;;;8.13;;
19905;SDS011;10115;50.906;4.438;2022-07-23T00:28:43;12.53;;;8.37;;
19905;SDS011;10115;50.906;4.438;2022-07-23T00:31:09;23.20;;;7.97;;
19905;SDS011;10115;50.906;4.438;2022-07-23T00:33:34;12.07;;;8.00;;
19905;SDS011;10115;50.906;4.438;2022-07-23T00:36:00;11.73;;;9.00;;
19905;SDS011;10115;50.906;4.438;2022-07-23T00:38:26;13.90;;;8.87;;
19905;SDS011;10115;50.906;4.438;2022-07-23T00:40:52;16.27;;;8.13;;
19905;SDS011;10115;50.906;4.438;2022-07-23T00:43:19;13.87;;;9.63;;
19905;SDS011;10115;50.906;4.438;2022-07-23T00:45:47;13.70;;;8.70;;
19905;SDS011;10115;50.906;4.438;2022-07-23T00:48:12;11.60;;;7.90;;
19905;SDS011;10115;50.906;4.438;2022-07-23T00:50:38;11.37;;;8.07;;
19905;SDS011;10115;50.906;4.438;2022-07-23T00:53:04;15.37;;;8.50;;
19905;SDS011;10115;50.906;4.438;2022-07-23T00:55:30;15.60;;;8.67;;
19905;SDS011;10115;50.906;4.438;2022-07-23T00:57:56;11.67;;;8.33;;
19905;SDS011;10115;50.906;4.438;2022-07-23T01:00:23;12.73;;;7.97;;
19905;SDS011;10115;50.906;4.438;2022-07-23T01:02:49;11.17;;;8.47;;
19905;SDS011;10115;50.906;4.438;2022-07-23T01:05:15;16.87;;;8.70;;
19905;SDS011;10115;50.906;4.438;2022-07-23T01:07:42;18.10;;;9.60;;
19905;SDS011;10115;50.906;4.438;2022-07-23T01:10:08;14.67;;;9.17;;
19905;SDS011;10115;50.906;4.438;2022-07-23T01:12:53;11.83;;;8.67;;
19905;SDS011;10115;50.906;4.438;2022-07-23T01:15:18;16.90;;;9.67;;
19905;SDS011;10115;50.906;4.438;2022-07-23T01:17:44;10.43;;;8.00;;
19905;SDS011;10115;50.906;4.438;2022-07-23T01:20:10;18.13;;;9.20;;
19905;SDS011;10115;50.906;4.438;2022-07-23T01:22:35;11.13;;;8.90;;
19905;SDS011;10115;50.906;4.438;2022-07-23T01:25:01;10.50;;;8.70;;
19905;SDS011;10115;50.906;4.438;2022-07-23T01:27:27;11.97;;;8.67;;
19905;SDS011;10115;50.906;4.438;2022-07-23T01:29:54;13.23;;;9.07;;
19905;SDS011;10115;50.906;4.438;2022-07-23T01:32:20;17.40;;;9.10;;
19905;SDS011;10115;50.906;4.438;2022-07-23T01:34:45;16.27;;;8.70;;
19905;SDS011;10115;50.906;4.438;2022-07-23T01:37:11;14.40;;;9.17;;
19905;SDS011;10115;50.906;4.438;2022-07-23T01:39:37;14.60;;;10.13;;
19905;SDS011;10115;50.906;4.438;2022-07-23T01:42:02;12.40;;;8.83;;
19905;SDS011;10115;50.906;4.438;2022-07-23T01:44:28;14.60;;;9.50;;
19905;SDS011;10115;50.906;4.438;2022-07-23T01:46:55;16.93;;;11.13;;
19905;SDS011;10115;50.906;4.438;2022-07-23T01:49:21;13.90;;;8.70;;
19905;SDS011;10115;50.906;4.438;2022-07-23T01:51:46;13.20;;;10.00;;
19905;SDS011;10115;50.906;4.438;2022-07-23T01:54:27;17.93;;;10.13;;
19905;SDS011;10115;50.906;4.438;2022-07-23T01:56:54;12.63;;;8.90;;
19905;SDS011;10115;50.906;4.438;2022-07-23T01:59:21;13.90;;;9.00;;
19905;SDS011;10115;50.906;4.438;2022-07-23T02:01:47;14.43;;;10.00;;
19905;SDS011;10115;50.906;4.438;2022-07-23T02:04:15;15.30;;;10.07;;
19905;SDS011;10115;50.906;4.438;2022-07-23T02:06:42;18.53;;;10.47;;
19905;SDS011;10115;50.906;4.438;2022-07-23T02:09:07;12.90;;;8.90;;
19905;SDS011;10115;50.906;4.438;2022-07-23T02:11:33;15.83;;;10.57;;
19905;SDS011;10115;50.906;4.438;2022-07-23T02:13:59;15.83;;;9.80;;
19905;SDS011;10115;50.906;4.438;2022-07-23T02:16:24;12.73;;;8.37;;
19905;SDS011;10115;50.906;4.438;2022-07-23T02:18:50;13.67;;;10.07;;
19905;SDS011;10115;50.906;4.438;2022-07-23T02:21:15;17.93;;;9.87;;
19905;SDS011;10115;50.906;4.438;2022-07-23T02:23:41;11.07;;;8.87;;
19905;SDS011;10115;50.906;4.438;2022-07-23T02:26:07;14.10;;;9.03;;
19905;SDS011;10115;50.906;4.438;2022-07-23T02:28:32;15.03;;;10.37;;
19905;SDS011;10115;50.906;4.438;2022-07-23T02:30:58;16.20;;;10.27;;
19905;SDS011;10115;50.906;4.438;2022-07-23T02:33:24;11.73;;;8.83;;
19905;SDS011;10115;50.906;4.438;2022-07-23T02:35:50;16.70;;;9.57;;
19905;SDS011;10115;50.906;4.438;2022-07-23T02:38:15;13.77;;;8.63;;
19905;SDS011;10115;50.906;4.438;2022-07-23T02:40:41;11.90;;;9.03;;
19905;SDS011;10115;50.906;4.438;2022-07-23T02:43:07;12.83;;;9.47;;
19905;SDS011;10115;50.906;4.438;2022-07-23T02:45:32;17.90;;;8.70;;
19905;SDS011;10115;50.906;4.438;2022-07-23T02:47:58;15.43;;;9.60;;
19905;SDS011;10115;50.906;4.438;2022-07-23T02:50:24;13.63;;;9.40;;
19905;SDS011;10115;50.906;4.438;2022-07-23T02:52:49;14.47;;;9.37;;
19905;SDS011;10115;50.906;4.438;2022-07-23T02:55:15;12.03;;;8.13;;
19905;SDS011;10115;50.906;4.438;2022-07-23T02:57:41;12.83;;;8.80;;
19905;SDS011;10115;50.906;4.438;2022-07-23T03:00:07;13.77;;;9.47;;
19905;SDS011;10115;50.906;4.438;2022-07-23T03:02:33;13.27;;;9.00;;
19905;SDS011;10115;50.906;4.438;2022-07-23T03:04:59;12.57;;;9.13;;
19905;SDS011;10115;50.906;4.438;2022-07-23T03:07:24;15.27;;;8.90;;
19905;SDS011;10115;50.906;4.438;2022-07-23T03:09:50;13.23;;;7.70;;
19905;SDS011;10115;50.906;4.438;2022-07-23T03:12:15;13.87;;;8.47;;
19905;SDS011;10115;50.906;4.438;2022-07-23T03:14:41;13.10;;;8.80;;
19905;SDS011;10115;50.906;4.438;2022-07-23T03:17:07;16.63;;;9.33;;
19905;SDS011;10115;50.906;4.438;2022-07-23T03:19:33;12.97;;;8.93;;
19905;SDS011;10115;50.906;4.438;2022-07-23T03:21:59;15.07;;;9.80;;
19905;SDS011;10115;50.906;4.438;2022-07-23T03:24:24;16.00;;;9.13;;
19905;SDS011;10115;50.906;4.438;2022-07-23T03:27:10;22.23;;;9.30;;
19905;SDS011;10115;50.906;4.438;2022-07-23T03:29:36;17.67;;;8.70;;
19905;SDS011;10115;50.906;4.438;2022-07-23T03:32:02;14.93;;;9.10;;
19905;SDS011;10115;50.906;4.438;2022-07-23T03:34:29;12.13;;;8.83;;
19905;SDS011;10115;50.906;4.438;2022-07-23T03:36:54;15.07;;;9.87;;
19905;SDS011;10115;50.906;4.438;2022-07-23T03:39:20;20.10;;;9.40;;
19905;SDS011;10115;50.906;4.438;2022-07-23T03:41:46;12.73;;;9.10;;
19905;SDS011;10115;50.906;4.438;2022-07-23T03:44:11;13.37;;;8.03;;
19905;SDS011;10115;50.906;4.438;2022-07-23T03:46:37;15.47;;;9.70;;
19905;SDS011;10115;50.906;4.438;2022-07-23T03:49:03;13.57;;;8.73;;
19905;SDS011;10115;50.906;4.438;2022-07-23T03:51:28;18.23;;;8.93;;
19905;SDS011;10115;50.906;4.438;2022-07-23T03:53:54;13.83;;;8.13;;
19905;SDS011;10115;50.906;4.438;2022-07-23T03:56:20;12.57;;;8.80;;
19905;SDS011;10115;50.906;4.438;2022-07-23T03:58:46;13.53;;;8.63;;
19905;SDS011;10115;50.906;4.438;2022-07-23T04:01:12;13.60;;;9.20;;
19905;SDS011;10115;50.906;4.438;2022-07-23T04:03:38;12.33;;;8.70;;
19905;SDS011;10115;50.906;4.438;2022-07-23T04:06:03;16.33;;;9.53;;
19905;SDS011;10115;50.906;4.438;2022-07-23T04:08:30;14.13;;;8.47;;
19905;SDS011;10115;50.906;4.438;2022-07-23T04:10:55;13.07;;;8.77;;
19905;SDS011;10115;50.906;4.438;2022-07-23T04:13:21;11.27;;;8.07;;
19905;SDS011;10115;50.906;4.438;2022-07-23T04:15:47;13.13;;;9.50;;
19905;SDS011;10115;50.906;4.438;2022-07-23T04:18:12;17.07;;;9.93;;
19905;SDS011;10115;50.906;4.438;2022-07-23T04:20:38;13.67;;;8.47;;
19905;SDS011;10115;50.906;4.438;2022-07-23T04:23:04;13.97;;;9.57;;
19905;SDS011;10115;50.906;4.438;2022-07-23T04:25:30;10.60;;;8.00;;
19905;SDS011;10115;50.906;4.438;2022-07-23T04:27:55;11.40;;;8.77;;
19905;SDS011;10115;50.906;4.438;2022-07-23T04:30:21;11.80;;;7.80;;
19905;SDS011;10115;50.906;4.438;2022-07-23T04:32:46;17.17;;;9.00;;
19905;SDS011;10115;50.906;4.438;2022-07-23T04:35:12;11.13;;;8.07;;
19905;SDS011;10115;50.906;4.438;2022-07-23T04:37:38;12.87;;;9.30;;
19905;SDS011;10115;50.906;4.438;2022-07-23T04:40:04;12.60;;;8.27;;
19905;SDS011;10115;50.906;4.438;2022-07-23T04:42:30;22.97;;;9.23;;
19905;SDS011;10115;50.906;4.438;2022-07-23T04:44:55;12.10;;;8.20;;
19905;SDS011;10115;50.906;4.438;2022-07-23T04:47:21;17.03;;;8.73;;
19905;SDS011;10115;50.906;4.438;2022-07-23T04:49:47;16.77;;;8.27;;
19905;SDS011;10115;50.906;4.438;2022-07-23T04:52:13;12.07;;;8.23;;
19905;SDS011;10115;50.906;4.438;2022-07-23T04:54:40;14.77;;;9.03;;
19905;SDS011;10115;50.906;4.438;2022-07-23T04:57:06;15.87;;;9.10;;
19905;SDS011;10115;50.906;4.438;2022-07-23T04:59:31;15.03;;;9.03;;
19905;SDS011;10115;50.906;4.438;2022-07-23T05:01:57;17.70;;;8.53;;
19905;SDS011;10115;50.906;4.438;2022-07-23T05:04:23;14.70;;;8.60;;
19905;SDS011;10115;50.906;4.438;2022-07-23T05:06:48;14.10;;;8.60;;
19905;SDS011;10115;50.906;4.438;2022-07-23T05:09:14;17.57;;;9.70;;
19905;SDS011;10115;50.906;4.438;2022-07-23T05:11:40;15.10;;;9.77;;
19905;SDS011;10115;50.906;4.438;2022-07-23T05:14:05;11.13;;;9.33;;
19905;SDS011;10115;50.906;4.438;2022-07-23T05:16:31;12.17;;;9.23;;
19905;SDS011;10115;50.906;4.438;2022-07-23T05:18:57;12.90;;;9.20;;
19905;SDS011;10115;50.906;4.438;2022-07-23T05:21:22;18.73;;;9.40;;
19905;SDS011;10115;50.906;4.438;2022-07-23T05:23:48;13.60;;;9.33;;
19905;SDS011;10115;50.906;4.438;2022-07-23T05:26:14;12.97;;;7.77;;
19905;SDS011;10115;50.906;4.438;2022-07-23T05:28:39;18.37;;;8.47;;
19905;SDS011;10115;50.906;4.438;2022-07-23T05:31:05;11.50;;;8.23;;
19905;SDS011;10115;50.906;4.438;2022-07-23T05:33:31;11.70;;;8.00;;
19905;SDS011;10115;50.906;4.438;2022-07-23T05:36:00;16.57;;;7.70;;
19905;SDS011;10115;50.906;4.438;2022-07-23T05:38:27;12.73;;;7.77;;
19905;SDS011;10115;50.906;4.438;2022-07-23T05:40:53;10.67;;;7.73;;
19905;SDS011;10115;50.906;4.438;2022-07-23T05:43:19;10.77;;;6.77;;
19905;SDS011;10115;50.906;4.438;2022-07-23T05:45:44;12.40;;;7.13;;
19905;SDS011;10115;50.906;4.438;2022-07-23T05:48:10;12.33;;;7.07;;
19905;SDS011;10115;50.906;4.438;2022-07-23T05:50:35;14.30;;;7.30;;
19905;SDS011;10115;50.906;4.438;2022-07-23T05:53:01;9.40;;;6.87;;
19905;SDS011;10115;50.906;4.438;2022-07-23T05:55:27;9.40;;;7.03;;
19905;SDS011;10115;50.906;4.438;2022-07-23T05:57:54;9.80;;;6.80;;
19905;SDS011;10115;50.906;4.438;2022-07-23T06:00:21;13.30;;;8.57;;
19905;SDS011;10115;50.906;4.438;2022-07-23T06:02:47;9.13;;;6.60;;
19905;SDS011;10115;50.906;4.438;2022-07-23T06:05:12;8.60;;;6.70;;
19905;SDS011;10115;50.906;4.438;2022-07-23T06:07:38;13.00;;;7.60;;
19905;SDS011;10115;50.906;4.438;2022-07-23T06:10:04;9.97;;;6.57;;
19905;SDS011;10115;50.906;4.438;2022-07-23T06:12:30;9.97;;;6.83;;
19905;SDS011;10115;50.906;4.438;2022-07-23T06:14:56;6.87;;;6.17;;
19905;SDS011;10115;50.906;4.438;2022-07-23T06:17:22;8.53;;;6.47;;
19905;SDS011;10115;50.906;4.438;2022-07-23T06:19:47;12.57;;;6.50;;
19905;SDS011;10115;50.906;4.438;2022-07-23T06:22:13;10.27;;;6.97;;
19905;SDS011;10115;50.906;4.438;2022-07-23T06:24:38;9.93;;;6.60;;
19905;SDS011;10115;50.906;4.438;2022-07-23T06:27:04;10.30;;;6.27;;
19905;SDS011;10115;50.906;4.438;2022-07-23T06:29:30;9.67;;;7.23;;
19905;SDS011;10115;50.906;4.438;2022-07-23T06:31:56;10.50;;;6.37;;
19905;SDS011;10115;50.906;4.438;2022-07-23T06:34:21;7.43;;;6.03;;
19905;SDS011;10115;50.906;4.438;2022-07-23T06:36:47;11.30;;;6.37;;
19905;SDS011;10115;50.906;4.438;2022-07-23T06:39:13;7.57;;;5.83;;
19905;SDS011;10115;50.906;4.438;2022-07-23T06:41:38;10.20;;;6.73;;
19905;SDS011;10115;50.906;4.438;2022-07-23T06:44:04;10.13;;;6.80;;
19905;SDS011;10115;50.906;4.438;2022-07-23T06:46:30;9.83;;;6.57;;
19905;SDS011;10115;50.906;4.438;2022-07-23T06:48:56;8.43;;;6.83;;
19905;SDS011;10115;50.906;4.438;2022-07-23T06:51:21;8.50;;;7.03;;
19905;SDS011;10115;50.906;4.438;2022-07-23T06:53:47;11.10;;;7.60;;
19905;SDS011;10115;50.906;4.438;2022-07-23T06:56:13;10.57;;;6.93;;
19905;SDS011;10115;50.906;4.438;2022-07-23T06:58:38;9.90;;;7.07;;
19905;SDS011;10115;50.906;4.438;2022-07-23T07:01:04;9.67;;;6.87;;
19905;SDS011;10115;50.906;4.438;2022-07-23T07:03:29;10.77;;;6.93;;
19905;SDS011;10115;50.906;4.438;2022-07-23T07:05:55;9.70;;;7.13;;
19905;SDS011;10115;50.906;4.438;2022-07-23T07:08:22;9.83;;;6.50;;
19905;SDS011;10115;50.906;4.438;2022-07-23T07:10:48;10.97;;;7.33;;
19905;SDS011;10115;50.906;4.438;2022-07-23T07:13:14;19.10;;;7.00;;
19905;SDS011;10115;50.906;4.438;2022-07-23T07:15:40;9.67;;;5.73;;
19905;SDS011;10115;50.906;4.438;2022-07-23T07:18:06;10.33;;;6.37;;
19905;SDS011;10115;50.906;4.438;2022-07-23T07:20:31;7.93;;;5.90;;
19905;SDS011;10115;50.906;4.438;2022-07-23T07:22:57;8.77;;;6.30;;
19905;SDS011;10115;50.906;4.438;2022-07-23T07:25:23;8.50;;;6.43;;
19905;SDS011;10115;50.906;4.438;2022-07-23T07:27:48;11.97;;;6.70;;
19905;SDS011;10115;50.906;4.438;2022-07-23T07:30:14;8.30;;;6.17;;
19905;SDS011;10115;50.906;4.438;2022-07-23T07:32:40;8.67;;;6.50;;
19905;SDS011;10115;50.906;4.438;2022-07-23T07:35:06;7.27;;;5.93;;
19905;SDS011;10115;50.906;4.438;2022-07-23T07:37:32;8.47;;;6.13;;
19905;SDS011;10115;50.906;4.438;2022-07-23T07:39:58;6.60;;;5.83;;
19905;SDS011;10115;50.906;4.438;2022-07-23T07:42:24;9.67;;;5.80;;
19905;SDS011;10115;50.906;4.438;2022-07-23T07:44:49;9.30;;;5.60;;
19905;SDS011;10115;50.906;4.438;2022-07-23T07:47:15;9.77;;;5.83;;
19905;SDS011;10115;50.906;4.438;2022-07-23T07:49:42;8.07;;;6.03;;
19905;SDS011;10115;50.906;4.438;2022-07-23T07:52:08;6.30;;;5.47;;
19905;SDS011;10115;50.906;4.438;2022-07-23T07:54:34;8.23;;;6.67;;
19905;SDS011;10115;50.906;4.438;2022-07-23T07:57:00;9.17;;;5.60;;
19905;SDS011;10115;50.906;4.438;2022-07-23T07:59:26;7.20;;;5.27;;
19905;SDS011;10115;50.906;4.438;2022-07-23T08:01:52;7.57;;;5.37;;
19905;SDS011;10115;50.906;4.438;2022-07-23T08:04:17;10.23;;;6.13;;
19905;SDS011;10115;50.906;4.438;2022-07-23T08:06:43;7.23;;;5.53;;
19905;SDS011;10115;50.906;4.438;2022-07-23T08:09:09;6.13;;;5.30;;
19905;SDS011;10115;50.906;4.438;2022-07-23T08:11:35;6.33;;;5.17;;
19905;SDS011;10115;50.906;4.438;2022-07-23T08:14:00;7.37;;;5.03;;
19905;SDS011;10115;50.906;4.438;2022-07-23T08:16:26;10.80;;;5.87;;
19905;SDS011;10115;50.906;4.438;2022-07-23T08:18:52;8.30;;;4.77;;
19905;SDS011;10115;50.906;4.438;2022-07-23T08:21:18;6.00;;;5.37;;
19905;SDS011;10115;50.906;4.438;2022-07-23T08:23:43;7.87;;;4.97;;
19905;SDS011;10115;50.906;4.438;2022-07-23T08:26:09;12.83;;;5.10;;
19905;SDS011;10115;50.906;4.438;2022-07-23T08:28:35;5.80;;;4.70;;
19905;SDS011;10115;50.906;4.438;2022-07-23T08:31:00;5.83;;;4.77;;
19905;SDS011;10115;50.906;4.438;2022-07-23T08:33:26;11.07;;;5.60;;
19905;SDS011;10115;50.906;4.438;2022-07-23T08:35:52;7.67;;;5.53;;
19905;SDS011;10115;50.906;4.438;2022-07-23T08:38:20;6.17;;;4.60;;
19905;SDS011;10115;50.906;4.438;2022-07-23T08:40:47;6.90;;;4.07;;
19905;SDS011;10115;50.906;4.438;2022-07-23T08:43:17;7.10;;;5.03;;
19905;SDS011;10115;50.906;4.438;2022-07-23T08:45:50;7.00;;;4.67;;
19905;SDS011;10115;50.906;4.438;2022-07-23T08:48:19;10.00;;;5.17;;
19905;SDS011;10115;50.906;4.438;2022-07-23T08:50:49;10.07;;;5.43;;
19905;SDS011;10115;50.906;4.438;2022-07-23T08:53:19;7.60;;;4.90;;
19905;SDS011;10115;50.906;4.438;2022-07-23T08:55:46;9.23;;;4.87;;
19905;SDS011;10115;50.906;4.438;2022-07-23T08:58:14;6.07;;;4.73;;
19905;SDS011;10115;50.906;4.438;2022-07-23T09:00:40;8.63;;;4.33;;
19905;SDS011;10115;50.906;4.438;2022-07-23T09:03:06;8.10;;;4.23;;
19905;SDS011;10115;50.906;4.438;2022-07-23T09:05:32;7.97;;;4.70;;
19905;SDS011;10115;50.906;4.438;2022-07-23T09:10:46;9.13;;;4.63;;
19905;SDS011;10115;50.906;4.438;2022-07-23T09:15:58;8.00;;;4.40;;
19905;SDS011;10115;50.906;4.438;2022-07-23T09:18:49;5.03;;;3.53;;
19905;SDS011;10115;50.906;4.438;2022-07-23T09:21:22;5.37;;;3.80;;
19905;SDS011;10115;50.906;4.438;2022-07-23T09:23:51;6.43;;;3.33;;
19905;SDS011;10115;50.906;4.438;2022-07-23T09:31:42;3.87;;;3.50;;
19905;SDS011;10115;50.906;4.438;2022-07-23T09:34:21;5.80;;;3.20;;
19905;SDS011;10115;50.906;4.438;2022-07-23T09:37:14;4.97;;;3.70;;
19905;SDS011;10115;50.906;4.438;2022-07-23T09:39:41;8.07;;;3.43;;
19905;SDS011;10115;50.906;4.438;2022-07-23T09:42:15;4.30;;;3.60;;
19905;SDS011;10115;50.906;4.438;2022-07-23T09:44:44;3.80;;;3.43;;
19905;SDS011;10115;50.906;4.438;2022-07-23T09:47:14;6.03;;;3.60;;
19905;SDS011;10115;50.906;4.438;2022-07-23T09:49:40;5.43;;;4.07;;
19905;SDS011;10115;50.906;4.438;2022-07-23T09:52:31;5.80;;;3.80;;
19905;SDS011;10115;50.906;4.438;2022-07-23T09:55:07;3.30;;;3.00;;
19905;SDS011;10115;50.906;4.438;2022-07-23T09:57:33;3.25;;;2.95;;
19905;SDS011;10115;50.906;4.438;2022-07-23T10:00:08;6.10;;;4.45;;
19905;SDS011;10115;50.906;4.438;2022-07-23T10:02:35;5.82;;;4.38;;
19905;SDS011;10115;50.906;4.438;2022-07-23T10:05:03;6.63;;;3.88;;
19905;SDS011;10115;50.906;4.438;2022-07-23T10:07:31;4.00;;;3.33;;
19905;SDS011;10115;50.906;4.438;2022-07-23T10:09:59;4.28;;;3.10;;
19905;SDS011;10115;50.906;4.438;2022-07-23T10:12:25;4.45;;;3.40;;
19905;SDS011;10115;50.906;4.438;2022-07-23T10:15:00;5.85;;;3.47;;
19905;SDS011;10115;50.906;4.438;2022-07-23T10:17:28;3.05;;;2.75;;
19905;SDS011;10115;50.906;4.438;2022-07-23T10:19:54;7.03;;;3.73;;
19905;SDS011;10115;50.906;4.438;2022-07-23T10:22:30;7.38;;;3.50;;
19905;SDS011;10115;50.906;4.438;2022-07-23T10:25:10;7.65;;;3.15;;
19905;SDS011;10115;50.906;4.438;2022-07-23T10:28:03;3.92;;;3.22;;
19905;SDS011;10115;50.906;4.438;2022-07-23T10:33:51;4.78;;;3.17;;
19905;SDS011;10115;50.906;4.438;2022-07-23T10:39:05;5.40;;;3.15;;
19905;SDS011;10115;50.906;4.438;2022-07-23T10:41:40;3.17;;;2.88;;
19905;SDS011;10115;50.906;4.438;2022-07-23T10:44:07;3.80;;;3.08;;
19905;SDS011;10115;50.906;4.438;2022-07-23T10:46:36;6.32;;;2.67;;
19905;SDS011;10115;50.906;4.438;2022-07-23T10:49:24;6.28;;;2.83;;
19905;SDS011;10115;50.906;4.438;2022-07-23T10:57:10;4.43;;;2.65;;
19905;SDS011;10115;50.906;4.438;2022-07-23T11:02:24;6.20;;;2.60;;
19905;SDS011;10115;50.906;4.438;2022-07-23T11:04:51;2.40;;;2.20;;
19905;SDS011;10115;50.906;4.438;2022-07-23T11:07:17;6.30;;;2.65;;
19905;SDS011;10115;50.906;4.438;2022-07-23T11:09:43;3.72;;;3.00;;
19905;SDS011;10115;50.906;4.438;2022-07-23T11:15:05;6.47;;;2.85;;
19905;SDS011;10115;50.906;4.438;2022-07-23T11:27:50;5.57;;;3.00;;
19905;SDS011;10115;50.906;4.438;2022-07-23T11:30:50;3.47;;;2.75;;
19905;SDS011;10115;50.906;4.438;2022-07-23T11:35:42;2.67;;;2.42;;
19905;SDS011;10115;50.906;4.438;2022-07-23T11:38:19;4.47;;;3.05;;
19905;SDS011;10115;50.906;4.438;2022-07-23T11:40:55;4.43;;;3.10;;
19905;SDS011;10115;50.906;4.438;2022-07-23T11:43:24;7.67;;;3.10;;
19905;SDS011;10115;50.906;4.438;2022-07-23T11:45:51;3.50;;;2.80;;
19905;SDS011;10115;50.906;4.438;2022-07-23T11:48:20;3.83;;;3.22;;
19905;SDS011;10115;50.906;4.438;2022-07-23T11:50:50;3.67;;;3.38;;
19905;SDS011;10115;50.906;4.438;2022-07-23T11:53:35;5.45;;;3.38;;
19905;SDS011;10115;50.906;4.438;2022-07-23T11:56:05;2.95;;;2.70;;
19905;SDS011;10115;50.906;4.438;2022-07-23T11:58:33;4.03;;;3.63;;
19905;SDS011;10115;50.906;4.438;2022-07-23T12:00:59;6.38;;;2.95;;
19905;SDS011;10115;50.906;4.438;2022-07-23T12:03:25;3.58;;;2.95;;
19905;SDS011;10115;50.906;4.438;2022-07-23T12:05:55;4.00;;;3.08;;
19905;SDS011;10115;50.906;4.438;2022-07-23T12:08:22;3.75;;;2.97;;
19905;SDS011;10115;50.906;4.438;2022-07-23T12:10:48;4.13;;;3.25;;
19905;SDS011;10115;50.906;4.438;2022-07-23T12:13:15;5.07;;;2.78;;
19905;SDS011;10115;50.906;4.438;2022-07-23T12:15:43;3.90;;;3.45;;
19905;SDS011;10115;50.906;4.438;2022-07-23T12:18:17;6.63;;;3.33;;
19905;SDS011;10115;50.906;4.438;2022-07-23T12:20:48;3.60;;;2.83;;
19905;SDS011;10115;50.906;4.438;2022-07-23T12:23:16;2.72;;;2.53;;
19905;SDS011;10115;50.906;4.438;2022-07-23T12:25:44;4.55;;;2.28;;
19905;SDS011;10115;50.906;4.438;2022-07-23T12:28:15;3.65;;;3.35;;
19905;SDS011;10115;50.906;4.438;2022-07-23T12:30:46;4.25;;;3.20;;
19905;SDS011;10115;50.906;4.438;2022-07-23T12:33:36;5.35;;;4.10;;
19905;SDS011;10115;50.906;4.438;2022-07-23T12:36:11;3.88;;;3.40;;
19905;SDS011;10115;50.906;4.438;2022-07-23T12:38:38;5.05;;;3.22;;
19905;SDS011;10115;50.906;4.438;2022-07-23T12:41:08;7.15;;;3.58;;
19905;SDS011;10115;50.906;4.438;2022-07-23T12:43:38;4.78;;;3.75;;
19905;SDS011;10115;50.906;4.438;2022-07-23T12:46:18;4.38;;;3.55;;
19905;SDS011;10115;50.906;4.438;2022-07-23T12:51:27;5.45;;;3.72;;
19905;SDS011;10115;50.906;4.438;2022-07-23T12:53:58;5.28;;;3.17;;
19905;SDS011;10115;50.906;4.438;2022-07-23T12:56:30;3.92;;;3.55;;
19905;SDS011;10115;50.906;4.438;2022-07-23T12:58:58;4.43;;;2.58;;
19905;SDS011;10115;50.906;4.438;2022-07-23T13:01:43;4.20;;;2.90;;
19905;SDS011;10115;50.906;4.438;2022-07-23T13:09:08;7.63;;;3.08;;
19905;SDS011;10115;50.906;4.438;2022-07-23T13:11:37;5.35;;;2.70;;
19905;SDS011;10115;50.906;4.438;2022-07-23T13:14:03;5.78;;;2.78;;
19905;SDS011;10115;50.906;4.438;2022-07-23T13:16:29;5.07;;;3.40;;
19905;SDS011;10115;50.906;4.438;2022-07-23T13:18:56;5.20;;;3.13;;
19905;SDS011;10115;50.906;4.438;2022-07-23T13:21:23;6.63;;;3.90;;
19905;SDS011;10115;50.906;4.438;2022-07-23T13:23:49;7.20;;;3.25;;
19905;SDS011;10115;50.906;4.438;2022-07-23T13:26:15;7.57;;;3.40;;
19905;SDS011;10115;50.906;4.438;2022-07-23T13:28:41;4.05;;;3.10;;
19905;SDS011;10115;50.906;4.438;2022-07-23T13:31:07;4.32;;;3.40;;
19905;SDS011;10115;50.906;4.438;2022-07-23T13:33:33;3.00;;;2.70;;
19905;SDS011;10115;50.906;4.438;2022-07-23T13:35:59;3.08;;;2.80;;
19905;SDS011;10115;50.906;4.438;2022-07-23T13:38:25;7.25;;;3.28;;
19905;SDS011;10115;50.906;4.438;2022-07-23T13:40:51;4.15;;;3.40;;
19905;SDS011;10115;50.906;4.438;2022-07-23T13:43:19;3.60;;;2.95;;
19905;SDS011;10115;50.906;4.438;2022-07-23T13:45:47;3.75;;;3.45;;
19905;SDS011;10115;50.906;4.438;2022-07-23T13:48:13;2.35;;;2.15;;
19905;SDS011;10115;50.906;4.438;2022-07-23T13:50:40;6.38;;;3.72;;
19905;SDS011;10115;50.906;4.438;2022-07-23T13:53:08;5.25;;;3.53;;
19905;SDS011;10115;50.906;4.438;2022-07-23T13:55:36;3.70;;;3.33;;
19905;SDS011;10115;50.906;4.438;2022-07-23T13:58:02;5.72;;;3.70;;
19905;SDS011;10115;50.906;4.438;2022-07-23T14:00:30;7.20;;;3.20;;
19905;SDS011;10115;50.906;4.438;2022-07-23T14:02:57;4.28;;;3.00;;
19905;SDS011;10115;50.906;4.438;2022-07-23T14:05:24;8.25;;;3.15;;
19905;SDS011;10115;50.906;4.438;2022-07-23T14:07:50;2.60;;;2.40;;
19905;SDS011;10115;50.906;4.438;2022-07-23T14:10:17;5.25;;;2.70;;
19905;SDS011;10115;50.906;4.438;2022-07-23T14:12:45;3.72;;;2.75;;
19905;SDS011;10115;50.906;4.438;2022-07-23T14:15:12;4.32;;;2.40;;
19905;SDS011;10115;50.906;4.438;2022-07-23T14:17:38;3.10;;;2.70;;
19905;SDS011;10115;50.906;4.438;2022-07-23T14:20:05;7.53;;;3.20;;
19905;SDS011;10115;50.906;4.438;2022-07-23T14:22:33;4.78;;;2.80;;
19905;SDS011;10115;50.906;4.438;2022-07-23T14:24:58;3.33;;;2.83;;
19905;SDS011;10115;50.906;4.438;2022-07-23T14:27:25;3.13;;;2.83;;
19905;SDS011;10115;50.906;4.438;2022-07-23T14:29:53;2.97;;;2.63;;
19905;SDS011;10115;50.906;4.438;2022-07-23T14:32:19;3.30;;;2.70;;
19905;SDS011;10115;50.906;4.438;2022-07-23T14:34:45;3.30;;;3.00;;
19905;SDS011;10115;50.906;4.438;2022-07-23T14:37:11;5.93;;;2.80;;
19905;SDS011;10115;50.906;4.438;2022-07-23T14:39:38;3.15;;;2.90;;
19905;SDS011;10115;50.906;4.438;2022-07-23T14:42:04;3.22;;;2.88;;
19905;SDS011;10115;50.906;4.438;2022-07-23T14:44:31;3.72;;;3.22;;
19905;SDS011;10115;50.906;4.438;2022-07-23T14:46:57;4.93;;;2.60;;
19905;SDS011;10115;50.906;4.438;2022-07-23T14:49:23;5.32;;;3.35;;
19905;SDS011;10115;50.906;4.438;2022-07-23T14:51:49;7.22;;;3.20;;
19905;SDS011;10115;50.906;4.438;2022-07-23T14:54:14;2.70;;;2.50;;
19905;SDS011;10115;50.906;4.438;2022-07-23T14:56:41;4.10;;;2.92;;
19905;SDS011;10115;50.906;4.438;2022-07-23T14:59:07;2.88;;;2.67;;
19905;SDS011;10115;50.906;4.438;2022-07-23T15:01:33;4.18;;;2.88;;
19905;SDS011;10115;50.906;4.438;2022-07-23T15:03:59;4.50;;;2.70;;
19905;SDS011;10115;50.906;4.438;2022-07-23T15:06:25;3.28;;;2.65;;
19905;SDS011;10115;50.906;4.438;2022-07-23T15:08:51;8.07;;;3.40;;
19905;SDS011;10115;50.906;4.438;2022-07-23T15:11:17;3.08;;;2.58;;
19905;SDS011;10115;50.906;4.438;2022-07-23T15:13:42;2.88;;;2.50;;
19905;SDS011;10115;50.906;4.438;2022-07-23T15:16:08;2.58;;;2.38;;
19905;SDS011;10115;50.906;4.438;2022-07-23T15:18:34;3.42;;;2.35;;
19905;SDS011;10115;50.906;4.438;2022-07-23T15:21:00;4.13;;;2.60;;
19905;SDS011;10115;50.906;4.438;2022-07-23T15:23:26;4.40;;;2.72;;
19905;SDS011;10115;50.906;4.438;2022-07-23T15:25:53;4.65;;;3.20;;
19905;SDS011;10115;50.906;4.438;2022-07-23T15:28:20;4.93;;;3.05;;
19905;SDS011;10115;50.906;4.438;2022-07-23T15:30:46;3.90;;;3.30;;